createdAt,value
2023-03-17T00:00:18.912Z,0.00
2023-03-17T00:01:18.898Z,0.00
2023-03-17T00:02:18.894Z,0.00
2023-03-17T00:03:18.851Z,0.00
2023-03-17T00:04:18.832Z,0.00
2023-03-17T00:05:18.784Z,0.00
2023-03-17T00:06:18.770Z,0.00
2023-03-17T00:07:18.734Z,0.00
2023-03-17T00:08:18.711Z,0.00
2023-03-17T00:09:18.696Z,0.00
2023-03-17T00:10:18.663Z,0.00
2023-03-17T00:11:18.633Z,0.00
2023-03-17T00:12:18.616Z,0.00
2023-03-17T00:13:18.584Z,0.00
2023-03-17T00:14:18.561Z,0.00
2023-03-17T00:15:18.538Z,0.00
2023-03-17T00:16:18.596Z,0.00
2023-03-17T00:17:18.481Z,0.00
2023-03-17T00:18:18.462Z,0.00
2023-03-17T00:19:18.430Z,0.00
2023-03-17T00:20:18.414Z,0.00
2023-03-17T00:21:18.378Z,0.00
2023-03-17T00:22:18.362Z,0.00
2023-03-17T00:23:18.334Z,0.00
2023-03-17T00:24:18.315Z,0.00
2023-03-17T00:25:18.276Z,0.00
2023-03-17T00:26:18.260Z,0.00
2023-03-17T00:27:18.230Z,0.00
2023-03-17T00:28:18.220Z,0.00
2023-03-17T00:29:18.178Z,0.00
2023-03-17T00:30:18.161Z,0.00
2023-03-17T00:31:18.201Z,0.00
2023-03-17T00:32:18.116Z,0.00
2023-03-17T00:33:18.105Z,0.00
2023-03-17T00:34:18.056Z,0.00
2023-03-17T00:35:18.031Z,0.00
2023-03-17T00:36:18.021Z,0.00
2023-03-17T00:37:17.976Z,0.00
2023-03-17T00:38:17.960Z,0.00
2023-03-17T00:39:17.928Z,0.00
2023-03-17T00:40:17.914Z,0.00
2023-03-17T00:41:17.878Z,0.00
2023-03-17T00:42:17.855Z,0.00
2023-03-17T00:43:17.830Z,0.00
2023-03-17T00:44:17.825Z,0.00
2023-03-17T00:45:17.779Z,0.00
2023-03-17T00:46:17.798Z,0.00
2023-03-17T00:47:17.731Z,0.00
2023-03-17T00:48:17.727Z,0.00
2023-03-17T00:49:17.678Z,0.00
2023-03-17T00:50:17.651Z,0.00
2023-03-17T00:51:17.628Z,0.00
2023-03-17T00:52:17.608Z,0.00
2023-03-17T00:53:17.575Z,0.00
2023-03-17T00:54:17.556Z,0.00
2023-03-17T00:55:17.526Z,0.00
2023-03-17T00:56:17.515Z,0.00
2023-03-17T00:57:17.485Z,0.00
2023-03-17T00:58:17.451Z,0.00
2023-03-17T00:59:19.298Z,0.00
2023-03-17T01:00:17.407Z,0.00
2023-03-17T01:01:17.389Z,0.00
2023-03-17T01:02:17.380Z,0.00
2023-03-17T01:03:17.326Z,0.00
2023-03-17T01:04:17.310Z,0.00
2023-03-17T01:05:17.303Z,0.00
2023-03-17T01:06:17.251Z,0.00
2023-03-17T01:07:17.234Z,0.00
2023-03-17T01:08:17.204Z,0.00
2023-03-17T01:09:17.180Z,0.00
2023-03-17T01:10:17.151Z,0.00
2023-03-17T01:11:17.126Z,0.00
2023-03-17T01:12:17.102Z,0.00
2023-03-17T01:13:17.078Z,0.00
2023-03-17T01:14:17.060Z,0.00
2023-03-17T01:15:17.048Z,0.00
2023-03-17T01:16:17.162Z,0.00
2023-03-17T01:17:16.978Z,0.00
2023-03-17T01:18:17.031Z,0.00
2023-03-17T01:19:17.126Z,0.00
2023-03-17T01:20:16.912Z,0.00
2023-03-17T01:21:16.889Z,0.00
2023-03-17T01:22:16.862Z,0.00
2023-03-17T01:23:16.863Z,0.00
2023-03-17T01:24:16.799Z,0.00
2023-03-17T01:25:16.776Z,0.00
2023-03-17T01:26:16.749Z,0.00
2023-03-17T01:27:16.718Z,0.00
2023-03-17T01:28:16.717Z,0.00
2023-03-17T01:29:16.674Z,0.00
2023-03-17T01:30:16.660Z,0.00
2023-03-17T01:31:16.642Z,0.00
2023-03-17T01:32:16.611Z,0.00
2023-03-17T01:33:16.572Z,0.00
2023-03-17T01:34:16.630Z,0.00
2023-03-17T01:35:16.552Z,0.00
2023-03-17T01:36:16.504Z,0.00
2023-03-17T01:37:16.479Z,0.00
2023-03-17T01:38:16.463Z,0.00
2023-03-17T01:39:16.429Z,0.00
2023-03-17T01:40:16.409Z,0.00
2023-03-17T01:41:16.372Z,0.00
2023-03-17T01:42:16.349Z,0.00
2023-03-17T01:43:16.329Z,0.00
2023-03-17T01:44:16.300Z,0.00
2023-03-17T01:45:16.284Z,0.00
2023-03-17T01:46:16.269Z,0.00
2023-03-17T01:47:16.248Z,0.00
2023-03-17T01:48:16.207Z,0.00
2023-03-17T01:49:16.174Z,0.00
2023-03-17T01:50:16.148Z,0.00
2023-03-17T01:51:16.125Z,0.00
2023-03-17T01:52:16.117Z,0.00
2023-03-17T01:53:16.069Z,0.00
2023-03-17T01:54:16.049Z,0.00
2023-03-17T01:55:16.022Z,0.00
2023-03-17T01:56:15.997Z,0.00
2023-03-17T01:57:15.972Z,0.00
2023-03-17T01:58:15.965Z,0.00
2023-03-17T01:59:15.924Z,0.00
2023-03-17T02:00:15.899Z,0.00
2023-03-17T02:01:15.909Z,0.00
2023-03-17T02:02:15.850Z,0.00
2023-03-17T02:03:15.826Z,0.00
2023-03-17T02:04:15.826Z,0.00
2023-03-17T02:05:15.785Z,0.00
2023-03-17T02:06:15.753Z,0.00
2023-03-17T02:07:15.718Z,0.00
2023-03-17T02:08:15.698Z,0.00
2023-03-17T02:09:15.675Z,0.00
2023-03-17T02:10:15.646Z,0.00
2023-03-17T02:11:15.618Z,0.00
2023-03-17T02:12:15.630Z,0.00
2023-03-17T02:13:15.577Z,0.00
2023-03-17T02:14:15.546Z,0.00
2023-03-17T02:15:15.543Z,0.00
2023-03-17T02:16:15.529Z,0.00
2023-03-17T02:17:15.477Z,0.00
2023-03-17T02:18:15.458Z,0.00
2023-03-17T02:19:15.454Z,0.00
2023-03-17T02:20:15.400Z,0.00
2023-03-17T02:21:15.367Z,0.00
2023-03-17T02:22:15.349Z,0.00
2023-03-17T02:23:15.318Z,0.00
2023-03-17T02:24:15.298Z,0.00
2023-03-17T02:25:15.277Z,0.00
2023-03-17T02:26:15.251Z,0.00
2023-03-17T02:27:15.222Z,0.00
2023-03-17T02:28:15.215Z,0.00
2023-03-17T02:29:15.166Z,0.00
2023-03-17T02:30:15.164Z,0.00
2023-03-17T02:31:15.154Z,0.00
2023-03-17T02:32:15.096Z,0.00
2023-03-17T02:33:15.072Z,0.00
2023-03-17T02:34:15.047Z,0.00
2023-03-17T02:35:15.046Z,0.00
2023-03-17T02:36:15.085Z,0.00
2023-03-17T02:37:14.963Z,0.00
2023-03-17T02:38:14.950Z,0.00
2023-03-17T02:39:14.923Z,0.00
2023-03-17T02:40:14.917Z,0.00
2023-03-17T02:41:14.901Z,0.00
2023-03-17T02:42:14.850Z,0.00
2023-03-17T02:43:14.820Z,0.00
2023-03-17T02:44:14.819Z,0.00
2023-03-17T02:45:14.771Z,0.00
2023-03-17T02:46:14.782Z,0.00
2023-03-17T02:47:14.721Z,0.00
2023-03-17T02:48:14.696Z,0.00
2023-03-17T02:49:14.673Z,0.00
2023-03-17T02:50:14.663Z,0.00
2023-03-17T02:51:14.616Z,0.00
2023-03-17T02:52:14.613Z,0.00
2023-03-17T02:53:14.594Z,0.00
2023-03-17T02:54:14.550Z,0.00
2023-03-17T02:55:14.516Z,0.00
2023-03-17T02:56:14.496Z,0.00
2023-03-17T02:57:14.468Z,0.00
2023-03-17T02:58:14.447Z,0.00
2023-03-17T02:59:14.432Z,0.00
2023-03-17T03:00:14.438Z,0.00
2023-03-17T03:01:14.412Z,0.00
2023-03-17T03:02:14.407Z,0.00
2023-03-17T03:03:14.314Z,0.00
2023-03-17T03:04:14.298Z,0.00
2023-03-17T03:05:14.276Z,0.00
2023-03-17T03:06:14.252Z,0.00
2023-03-17T03:07:14.224Z,0.00
2023-03-17T03:08:14.250Z,0.00
2023-03-17T03:09:14.173Z,0.00
2023-03-17T03:10:14.144Z,0.00
2023-03-17T03:11:14.131Z,0.00
2023-03-17T03:12:14.091Z,0.00
2023-03-17T03:13:14.102Z,0.00
2023-03-17T03:14:14.042Z,0.00
2023-03-17T03:15:14.016Z,0.00
2023-03-17T03:16:14.015Z,0.00
2023-03-17T03:17:13.971Z,0.00
2023-03-17T03:18:13.958Z,0.00
2023-03-17T03:19:13.927Z,0.00
2023-03-17T03:20:13.888Z,0.00
2023-03-17T03:21:13.868Z,0.00
2023-03-17T03:22:13.832Z,0.00
2023-03-17T03:23:13.817Z,0.00
2023-03-17T03:24:13.804Z,0.00
2023-03-17T03:25:13.765Z,0.00
2023-03-17T03:26:13.736Z,0.00
2023-03-17T03:27:13.722Z,0.00
2023-03-17T03:28:13.692Z,0.00
2023-03-17T03:29:13.676Z,0.00
2023-03-17T03:30:13.636Z,0.00
2023-03-17T03:31:13.700Z,0.00
2023-03-17T03:32:13.588Z,0.00
2023-03-17T03:33:13.564Z,0.00
2023-03-17T03:34:13.532Z,0.00
2023-03-17T03:35:13.509Z,0.00
2023-03-17T03:36:13.487Z,0.00
2023-03-17T03:37:13.461Z,0.00
2023-03-17T03:38:13.444Z,0.00
2023-03-17T03:39:14.530Z,0.00
2023-03-17T03:40:13.390Z,0.00
2023-03-17T03:41:13.356Z,0.00
2023-03-17T03:42:13.338Z,0.00
2023-03-17T03:43:22.440Z,0.00
2023-03-17T03:44:13.277Z,0.00
2023-03-17T03:45:13.268Z,0.00
2023-03-17T03:46:13.239Z,0.00
2023-03-17T03:47:13.200Z,0.00
2023-03-17T03:48:13.171Z,0.00
2023-03-17T03:49:13.156Z,0.00
2023-03-17T03:50:13.158Z,0.00
2023-03-17T03:51:13.106Z,0.00
2023-03-17T03:52:13.076Z,0.00
2023-03-17T03:53:13.077Z,0.00
2023-03-17T03:54:13.043Z,0.00
2023-03-17T03:55:13.007Z,0.00
2023-03-17T03:56:12.998Z,0.00
2023-03-17T03:57:12.949Z,0.00
2023-03-17T03:58:12.922Z,0.00
2023-03-17T03:59:12.901Z,0.00
2023-03-17T04:00:12.861Z,0.00
2023-03-17T04:01:12.844Z,0.00
2023-03-17T04:02:12.813Z,0.00
2023-03-17T04:03:12.820Z,0.00
2023-03-17T04:04:12.780Z,0.00
2023-03-17T04:05:12.754Z,0.00
2023-03-17T04:06:12.713Z,0.00
2023-03-17T04:07:12.705Z,0.00
2023-03-17T04:08:12.700Z,0.00
2023-03-17T04:09:12.680Z,0.00
2023-03-17T04:10:12.613Z,0.00
2023-03-17T04:11:12.598Z,0.00
2023-03-17T04:12:12.565Z,0.00
2023-03-17T04:13:12.540Z,0.00
2023-03-17T04:14:12.508Z,0.00
2023-03-17T04:15:12.485Z,0.00
2023-03-17T04:16:12.517Z,0.00
2023-03-17T04:17:12.437Z,0.00
2023-03-17T04:18:12.406Z,0.00
2023-03-17T04:19:12.521Z,0.00
2023-03-17T04:20:12.358Z,0.00
2023-03-17T04:21:12.333Z,0.00
2023-03-17T04:22:12.303Z,0.00
2023-03-17T04:23:12.283Z,0.00
2023-03-17T04:24:12.264Z,0.00
2023-03-17T04:25:12.266Z,0.00
2023-03-17T04:26:12.201Z,0.00
2023-03-17T04:27:12.186Z,0.00
2023-03-17T04:28:12.209Z,0.00
2023-03-17T04:29:12.132Z,0.00
2023-03-17T04:30:12.148Z,0.00
2023-03-17T04:31:12.204Z,0.00
2023-03-17T04:32:12.082Z,0.00
2023-03-17T04:33:12.059Z,0.00
2023-03-17T04:34:11.997Z,0.00
2023-03-17T04:35:11.978Z,0.00
2023-03-17T04:36:11.973Z,0.00
2023-03-17T04:37:11.930Z,0.00
2023-03-17T04:38:11.907Z,0.00
2023-03-17T04:39:11.876Z,0.00
2023-03-17T04:40:11.848Z,0.00
2023-03-17T04:41:11.828Z,0.00
2023-03-17T04:42:11.792Z,0.00
2023-03-17T04:43:11.789Z,0.00
2023-03-17T04:44:11.747Z,0.00
2023-03-17T04:45:11.733Z,0.00
2023-03-17T04:46:11.771Z,0.00
2023-03-17T04:47:11.690Z,0.00
2023-03-17T04:48:11.645Z,0.00
2023-03-17T04:49:11.623Z,0.00
2023-03-17T04:50:11.600Z,0.00
2023-03-17T04:51:11.952Z,0.00
2023-03-17T04:52:11.553Z,0.00
2023-03-17T04:53:11.526Z,0.00
2023-03-17T04:54:11.492Z,0.00
2023-03-17T04:55:11.473Z,0.00
2023-03-17T04:56:11.444Z,0.00
2023-03-17T04:57:11.427Z,0.00
2023-03-17T04:58:15.452Z,0.00
2023-03-17T04:59:11.372Z,0.00
2023-03-17T05:00:11.343Z,0.00
2023-03-17T05:01:11.370Z,0.00
2023-03-17T05:02:11.308Z,0.00
2023-03-17T05:03:25.797Z,0.00
2023-03-17T05:04:16.707Z,0.00
2023-03-17T05:05:11.220Z,0.00
2023-03-17T05:06:11.195Z,0.00
2023-03-17T05:07:11.166Z,0.00
2023-03-17T05:08:11.144Z,4.00
2023-03-17T05:09:11.118Z,4.00
2023-03-17T05:10:11.086Z,4.00
2023-03-17T05:11:11.072Z,4.00
2023-03-17T05:12:11.049Z,4.00
2023-03-17T05:13:11.015Z,4.00
2023-03-17T05:14:10.981Z,8.00
2023-03-17T05:15:10.958Z,8.00
2023-03-17T05:16:11.059Z,8.00
2023-03-17T05:17:10.910Z,16.00
2023-03-17T05:18:10.878Z,12.00
2023-03-17T05:19:10.859Z,16.00
2023-03-17T05:20:10.855Z,24.00
2023-03-17T05:21:10.822Z,28.00
2023-03-17T05:22:10.774Z,28.00
2023-03-17T05:23:10.763Z,36.00
2023-03-17T05:24:10.729Z,44.00
2023-03-17T05:25:10.711Z,48.00
2023-03-17T05:26:10.678Z,56.00
2023-03-17T05:27:10.654Z,64.00
2023-03-17T05:28:10.625Z,76.00
2023-03-17T05:29:10.614Z,84.00
2023-03-17T05:30:10.584Z,92.00
2023-03-17T05:31:11.199Z,104.00
2023-03-17T05:32:10.532Z,112.00
2023-03-17T05:33:10.510Z,128.00
2023-03-17T05:34:10.476Z,140.00
2023-03-17T05:35:10.449Z,152.00
2023-03-17T05:36:10.426Z,164.00
2023-03-17T05:37:10.404Z,184.00
2023-03-17T05:38:10.370Z,200.00
2023-03-17T05:39:10.350Z,212.00
2023-03-17T05:40:10.317Z,228.00
2023-03-17T05:41:10.297Z,248.00
2023-03-17T05:42:10.290Z,268.00
2023-03-17T05:43:10.254Z,288.00
2023-03-17T05:44:10.238Z,308.00
2023-03-17T05:45:10.189Z,332.00
2023-03-17T05:46:10.212Z,352.00
2023-03-17T05:47:10.141Z,376.00
2023-03-17T05:48:10.123Z,404.00
2023-03-17T05:49:10.103Z,432.00
2023-03-17T05:50:10.058Z,460.00
2023-03-17T05:51:10.046Z,492.00
2023-03-17T05:52:10.015Z,524.00
2023-03-17T05:53:09.997Z,556.00
2023-03-17T05:54:09.964Z,588.00
2023-03-17T05:55:09.940Z,624.00
2023-03-17T05:56:09.923Z,656.00
2023-03-17T05:57:09.898Z,692.00
2023-03-17T05:58:09.885Z,728.00
2023-03-17T05:59:09.865Z,756.00
2023-03-17T06:00:12.373Z,788.00
2023-03-17T06:01:09.795Z,820.00
2023-03-17T06:02:09.853Z,852.00
2023-03-17T06:03:09.753Z,884.00
2023-03-17T06:04:09.714Z,920.00
2023-03-17T06:05:09.710Z,956.00
2023-03-17T06:06:09.652Z,988.00
2023-03-17T06:07:09.636Z,1028.00
2023-03-17T06:08:09.604Z,1072.00
2023-03-17T06:09:09.582Z,1116.00
2023-03-17T06:10:09.561Z,1168.00
2023-03-17T06:11:09.541Z,1212.00
2023-03-17T06:12:09.516Z,1252.00
2023-03-17T06:13:09.487Z,1284.00
2023-03-17T06:14:09.446Z,1308.00
2023-03-17T06:15:09.432Z,1312.00
2023-03-17T06:16:09.559Z,1352.00
2023-03-17T06:17:09.375Z,1388.00
2023-03-17T06:18:09.371Z,1456.00
2023-03-17T06:19:09.339Z,1508.00
2023-03-17T06:20:09.324Z,1548.00
2023-03-17T06:21:09.287Z,1580.00
2023-03-17T06:22:09.269Z,1684.00
2023-03-17T06:23:09.226Z,1672.00
2023-03-17T06:24:09.193Z,1632.00
2023-03-17T06:25:09.172Z,1664.00
2023-03-17T06:26:09.143Z,1712.00
2023-03-17T06:27:09.216Z,1752.00
2023-03-17T06:28:09.092Z,1784.00
2023-03-17T06:29:09.085Z,1808.00
2023-03-17T06:30:09.038Z,1860.00
2023-03-17T06:31:09.083Z,1924.00
2023-03-17T06:32:19.727Z,1972.00
2023-03-17T06:33:09.226Z,2004.00
2023-03-17T06:34:08.943Z,2036.00
2023-03-17T06:35:08.912Z,2060.00
2023-03-17T06:36:08.991Z,2080.00
2023-03-17T06:37:08.862Z,2116.00
2023-03-17T06:38:08.832Z,2152.00
2023-03-17T06:39:08.811Z,2184.00
2023-03-17T06:40:08.784Z,2200.00
2023-03-17T06:41:08.760Z,2208.00
2023-03-17T06:42:08.751Z,2244.00
2023-03-17T06:43:08.712Z,2280.00
2023-03-17T06:44:08.680Z,2268.00
2023-03-17T06:45:08.660Z,2312.00
2023-03-17T06:46:08.729Z,2320.00
2023-03-17T06:47:08.614Z,2288.00
2023-03-17T06:48:08.587Z,2304.00
2023-03-17T06:49:08.555Z,2332.00
2023-03-17T06:50:08.518Z,2312.00
2023-03-17T06:51:08.503Z,2288.00
2023-03-17T06:52:08.479Z,2260.00
2023-03-17T06:53:08.472Z,2284.00
2023-03-17T06:54:08.424Z,2336.00
2023-03-17T06:55:08.407Z,2316.00
2023-03-17T06:56:17.230Z,2284.00
2023-03-17T06:57:08.348Z,2372.00
2023-03-17T06:58:08.326Z,2384.00
2023-03-17T06:59:08.297Z,2268.00
2023-03-17T07:00:08.275Z,2324.00
2023-03-17T07:01:08.253Z,2372.00
2023-03-17T07:02:08.316Z,2384.00
2023-03-17T07:03:08.213Z,2416.00
2023-03-17T07:04:08.210Z,2456.00
2023-03-17T07:05:08.151Z,2456.00
2023-03-17T07:06:08.165Z,2592.00
2023-03-17T07:07:08.102Z,2736.00
2023-03-17T07:08:08.115Z,2688.00
2023-03-17T07:09:08.058Z,2680.00
2023-03-17T07:10:08.019Z,2676.00
2023-03-17T07:11:08.011Z,2760.00
2023-03-17T07:12:07.980Z,2920.00
2023-03-17T07:13:08.044Z,3072.00
2023-03-17T07:14:07.957Z,3128.00
2023-03-17T07:15:07.904Z,3148.00
2023-03-17T07:16:08.012Z,3012.00
2023-03-17T07:17:07.873Z,3032.00
2023-03-17T07:18:07.818Z,3240.00
2023-03-17T07:19:07.821Z,3324.00
2023-03-17T07:20:07.784Z,3224.00
2023-03-17T07:21:07.750Z,3148.00
2023-03-17T07:22:07.721Z,3120.00
2023-03-17T07:23:07.705Z,3100.00
2023-03-17T07:24:07.681Z,3076.00
2023-03-17T07:25:07.698Z,3028.00
2023-03-17T07:26:07.624Z,3052.00
2023-03-17T07:27:07.615Z,3052.00
2023-03-17T07:28:07.578Z,2980.00
2023-03-17T07:29:07.551Z,2968.00
2023-03-17T07:30:07.543Z,3024.00
2023-03-17T07:31:07.524Z,3100.00
2023-03-17T07:32:07.475Z,3068.00
2023-03-17T07:33:07.486Z,3048.00
2023-03-17T07:34:07.433Z,3112.00
2023-03-17T07:35:07.439Z,3200.00
2023-03-17T07:36:07.447Z,3384.00
2023-03-17T07:37:07.379Z,3496.00
2023-03-17T07:38:07.353Z,3532.00
2023-03-17T07:39:08.067Z,3640.00
2023-03-17T07:40:07.406Z,3768.00
2023-03-17T07:41:07.254Z,3880.00
2023-03-17T07:42:07.253Z,3888.00
2023-03-17T07:43:07.202Z,3956.00
2023-03-17T07:44:07.224Z,4076.00
2023-03-17T07:45:07.158Z,4208.00
2023-03-17T07:46:07.247Z,4260.00
2023-03-17T07:47:07.114Z,4304.00
2023-03-17T07:48:07.127Z,4364.00
2023-03-17T07:49:07.091Z,4412.00
2023-03-17T07:50:07.046Z,4412.00
2023-03-17T07:51:07.046Z,4416.00
2023-03-17T07:52:07.018Z,4448.00
2023-03-17T07:53:06.969Z,4440.00
2023-03-17T07:54:06.954Z,4396.00
2023-03-17T07:55:06.925Z,4400.00
2023-03-17T07:56:06.951Z,4440.00
2023-03-17T07:57:06.911Z,4528.00
2023-03-17T07:58:06.940Z,4560.00
2023-03-17T07:59:06.864Z,4608.00
2023-03-17T08:00:06.852Z,4672.00
2023-03-17T08:01:06.823Z,4720.00
2023-03-17T08:02:06.900Z,4744.00
2023-03-17T08:03:10.798Z,4700.00
2023-03-17T08:04:06.775Z,4716.00
2023-03-17T08:05:06.704Z,4948.00
2023-03-17T08:06:06.711Z,5092.00
2023-03-17T08:07:06.665Z,5200.00
2023-03-17T08:08:06.851Z,5296.00
2023-03-17T08:09:06.635Z,5432.00
2023-03-17T08:10:06.607Z,5588.00
2023-03-17T08:11:06.572Z,5688.00
2023-03-17T08:12:06.570Z,5672.00
2023-03-17T08:13:06.542Z,6092.00
2023-03-17T08:14:06.529Z,6276.00
2023-03-17T08:15:06.494Z,6444.00
2023-03-17T08:16:06.639Z,6632.00
2023-03-17T08:17:06.589Z,6804.00
2023-03-17T08:18:06.444Z,7016.00
2023-03-17T08:19:06.411Z,7236.00
2023-03-17T08:20:06.414Z,7488.00
2023-03-17T08:21:06.383Z,7700.00
2023-03-17T08:22:06.361Z,7880.00
2023-03-17T08:23:06.410Z,8108.00
2023-03-17T08:24:06.367Z,8464.00
2023-03-17T08:25:06.372Z,8904.00
2023-03-17T08:26:06.287Z,9324.00
2023-03-17T08:27:06.271Z,9880.00
2023-03-17T08:28:06.253Z,10268.00
2023-03-17T08:29:06.283Z,10920.00
2023-03-17T08:30:06.259Z,11392.00
2023-03-17T08:31:06.352Z,11964.00
2023-03-17T08:32:06.185Z,12404.00
2023-03-17T08:33:06.249Z,12920.00
2023-03-17T08:34:06.132Z,13364.00
2023-03-17T08:35:06.379Z,13724.00
2023-03-17T08:36:06.117Z,13964.00
2023-03-17T08:37:06.110Z,14544.00
2023-03-17T08:38:06.066Z,14840.00
2023-03-17T08:39:06.041Z,15172.00
2023-03-17T08:40:06.063Z,15772.00
2023-03-17T08:41:06.015Z,16396.00
2023-03-17T08:42:06.002Z,16960.00
2023-03-17T08:43:05.982Z,17472.00
2023-03-17T08:44:05.974Z,17600.00
2023-03-17T08:45:05.938Z,17984.00
2023-03-17T08:46:05.983Z,19168.00
2023-03-17T08:47:05.902Z,20448.00
2023-03-17T08:48:05.899Z,20512.00
2023-03-17T08:49:05.882Z,21824.00
2023-03-17T08:50:05.861Z,22752.00
2023-03-17T08:51:05.836Z,23296.00
2023-03-17T08:52:05.828Z,23776.00
2023-03-17T08:53:05.804Z,22944.00
2023-03-17T08:54:05.800Z,22912.00
2023-03-17T08:55:05.777Z,23872.00
2023-03-17T08:56:05.762Z,22240.00
2023-03-17T08:57:05.745Z,22208.00
2023-03-17T08:58:05.733Z,23488.00
2023-03-17T08:59:05.708Z,23200.00
2023-03-17T09:00:05.693Z,23744.00
2023-03-17T09:01:05.714Z,24832.00
2023-03-17T09:02:05.679Z,25728.00
2023-03-17T09:03:05.640Z,27616.00
2023-03-17T09:04:05.655Z,29184.00
2023-03-17T09:05:05.606Z,31360.00
2023-03-17T09:06:05.601Z,32160.00
2023-03-17T09:07:07.673Z,29728.00
2023-03-17T09:08:05.689Z,35168.00
2023-03-17T09:09:05.542Z,37184.00
2023-03-17T09:10:05.541Z,37952.00
2023-03-17T09:11:05.528Z,37664.00
2023-03-17T09:12:05.510Z,38976.00
2023-03-17T09:13:05.522Z,39744.00
2023-03-17T09:14:05.491Z,40672.00
2023-03-17T09:15:05.539Z,40896.00
2023-03-17T09:16:05.542Z,38592.00
2023-03-17T09:17:06.049Z,39744.00
2023-03-17T09:18:05.421Z,36960.00
2023-03-17T09:19:05.396Z,34400.00
2023-03-17T09:20:05.416Z,41888.00
2023-03-17T09:21:05.679Z,41472.00
2023-03-17T09:22:05.343Z,41984.00
2023-03-17T09:23:05.326Z,39616.00
2023-03-17T09:24:05.317Z,31168.00
2023-03-17T09:25:05.300Z,37056.00
2023-03-17T09:26:05.368Z,35200.00
2023-03-17T09:27:05.294Z,38272.00
2023-03-17T09:28:05.294Z,41024.00
2023-03-17T09:29:05.235Z,36320.00
2023-03-17T09:30:05.222Z,33056.00
2023-03-17T09:31:05.337Z,29728.00
2023-03-17T09:32:05.207Z,38144.00
2023-03-17T09:33:05.249Z,31936.00
2023-03-17T09:34:05.172Z,32736.00
2023-03-17T09:35:05.138Z,38112.00
2023-03-17T09:36:05.203Z,35776.00
2023-03-17T09:37:05.262Z,33376.00
2023-03-17T09:38:05.103Z,27424.00
2023-03-17T09:39:05.103Z,34016.00
2023-03-17T09:40:05.074Z,31136.00
2023-03-17T09:41:05.072Z,33184.00
2023-03-17T09:42:05.031Z,25472.00
2023-03-17T09:43:05.026Z,27808.00
2023-03-17T09:44:05.037Z,29184.00
2023-03-17T09:45:05.027Z,36128.00
2023-03-17T09:46:05.002Z,22176.00
2023-03-17T09:47:04.960Z,21120.00
2023-03-17T09:48:04.960Z,23776.00
2023-03-17T09:49:04.929Z,22368.00
2023-03-17T09:50:04.909Z,23712.00
2023-03-17T09:51:05.001Z,23040.00
2023-03-17T09:52:04.893Z,21568.00
2023-03-17T09:53:04.880Z,19360.00
2023-03-17T09:54:04.831Z,17216.00
2023-03-17T09:55:04.890Z,14684.00
2023-03-17T09:56:04.798Z,15864.00
2023-03-17T09:57:04.781Z,17344.00
2023-03-17T09:58:04.773Z,18336.00
2023-03-17T09:59:04.761Z,18720.00
2023-03-17T10:00:04.773Z,17760.00
2023-03-17T10:01:04.752Z,18368.00
2023-03-17T10:02:04.818Z,18464.00
2023-03-17T10:03:04.678Z,24928.00
2023-03-17T10:04:04.671Z,29120.00
2023-03-17T10:05:04.665Z,26336.00
2023-03-17T10:06:04.640Z,21216.00
2023-03-17T10:07:04.675Z,23744.00
2023-03-17T10:08:05.437Z,38272.00
2023-03-17T10:09:04.580Z,38080.00
2023-03-17T10:10:04.601Z,35488.00
2023-03-17T10:11:04.541Z,33536.00
2023-03-17T10:12:04.546Z,35744.00
2023-03-17T10:13:04.523Z,34560.00
2023-03-17T10:14:04.533Z,32576.00
2023-03-17T10:15:04.488Z,32224.00
2023-03-17T10:16:04.533Z,31072.00
2023-03-17T10:17:04.462Z,32256.00
2023-03-17T10:18:04.434Z,33376.00
2023-03-17T10:19:04.414Z,33280.00
2023-03-17T10:20:04.446Z,34752.00
2023-03-17T10:21:04.374Z,34720.00
2023-03-17T10:22:04.369Z,35936.00
2023-03-17T10:23:04.345Z,33568.00
2023-03-17T10:24:04.339Z,34560.00
2023-03-17T10:25:04.395Z,34976.00
2023-03-17T10:26:04.312Z,36448.00
2023-03-17T10:27:04.287Z,35008.00
2023-03-17T10:28:05.913Z,35040.00
2023-03-17T10:29:04.320Z,36576.00
2023-03-17T10:30:04.259Z,37120.00
2023-03-17T10:31:04.544Z,37408.00
2023-03-17T10:32:04.501Z,35488.00
2023-03-17T10:33:04.240Z,34944.00
2023-03-17T10:34:04.191Z,35040.00
2023-03-17T10:35:04.169Z,35616.00
2023-03-17T10:36:04.212Z,38912.00
2023-03-17T10:37:04.164Z,40000.00
2023-03-17T10:38:14.061Z,39616.00
2023-03-17T10:39:04.108Z,38784.00
2023-03-17T10:40:04.107Z,38752.00
2023-03-17T10:41:04.092Z,38080.00
2023-03-17T10:42:04.078Z,39648.00
2023-03-17T10:43:04.064Z,42016.00
2023-03-17T10:44:04.049Z,42656.00
2023-03-17T10:45:04.031Z,42816.00
2023-03-17T10:46:04.244Z,42272.00
2023-03-17T10:47:04.075Z,41664.00
2023-03-17T10:48:03.998Z,39456.00
2023-03-17T10:49:03.976Z,39456.00
2023-03-17T10:50:03.968Z,39968.00
2023-03-17T10:51:03.952Z,40256.00
2023-03-17T10:52:03.947Z,40384.00
2023-03-17T10:53:03.926Z,40224.00
2023-03-17T10:54:03.948Z,40800.00
2023-03-17T10:55:03.902Z,42048.00
2023-03-17T10:56:03.888Z,42176.00
2023-03-17T10:57:03.865Z,41856.00
2023-03-17T10:58:03.873Z,42048.00
2023-03-17T10:59:03.840Z,43712.00
2023-03-17T11:00:03.833Z,42144.00
2023-03-17T11:01:03.859Z,40992.00
2023-03-17T11:02:03.819Z,42496.00
2023-03-17T11:03:03.798Z,41568.00
2023-03-17T11:04:03.913Z,40384.00
2023-03-17T11:05:03.793Z,39456.00
2023-03-17T11:06:03.761Z,40864.00
2023-03-17T11:07:03.764Z,42176.00
2023-03-17T11:08:03.749Z,40640.00
2023-03-17T11:09:03.722Z,40032.00
2023-03-17T11:10:03.722Z,40000.00
2023-03-17T11:11:03.702Z,38208.00
2023-03-17T11:12:03.701Z,36640.00
2023-03-17T11:13:03.678Z,34912.00
2023-03-17T11:14:03.672Z,33248.00
2023-03-17T11:15:03.680Z,31008.00
2023-03-17T11:16:03.693Z,29920.00
2023-03-17T11:17:03.642Z,28832.00
2023-03-17T11:18:03.631Z,28864.00
2023-03-17T11:19:03.611Z,28544.00
2023-03-17T11:20:03.602Z,26016.00
2023-03-17T11:21:03.611Z,24448.00
2023-03-17T11:22:03.573Z,24192.00
2023-03-17T11:23:03.581Z,23136.00
2023-03-17T11:24:03.563Z,21088.00
2023-03-17T11:25:03.594Z,20416.00
2023-03-17T11:26:03.535Z,21152.00
2023-03-17T11:27:03.581Z,22880.00
2023-03-17T11:28:03.511Z,24512.00
2023-03-17T11:29:03.484Z,25600.00
2023-03-17T11:30:03.478Z,26048.00
2023-03-17T11:31:03.460Z,26592.00
2023-03-17T11:32:03.494Z,27808.00
2023-03-17T11:33:03.522Z,28416.00
2023-03-17T11:34:03.427Z,28800.00
2023-03-17T11:35:03.416Z,28480.00
2023-03-17T11:36:03.523Z,28992.00
2023-03-17T11:37:03.394Z,28992.00
2023-03-17T11:38:03.368Z,29568.00
2023-03-17T11:39:03.378Z,29856.00
2023-03-17T11:40:03.353Z,30816.00
2023-03-17T11:41:03.349Z,32032.00
2023-03-17T11:42:03.329Z,32576.00
2023-03-17T11:43:03.305Z,32160.00
2023-03-17T11:44:03.307Z,30784.00
2023-03-17T11:45:03.281Z,29408.00
2023-03-17T11:46:03.275Z,28448.00
2023-03-17T11:47:03.261Z,27808.00
2023-03-17T11:48:03.279Z,27040.00
2023-03-17T11:49:03.239Z,26400.00
2023-03-17T11:50:03.230Z,26304.00
2023-03-17T11:51:03.209Z,26176.00
2023-03-17T11:52:03.200Z,26080.00
2023-03-17T11:53:03.240Z,26368.00
2023-03-17T11:54:03.177Z,27968.00
2023-03-17T11:55:03.170Z,29984.00
2023-03-17T11:56:03.152Z,30176.00
2023-03-17T11:57:03.139Z,29184.00
2023-03-17T11:58:03.113Z,30816.00
2023-03-17T11:59:03.109Z,30336.00
2023-03-17T12:00:03.097Z,32000.00
2023-03-17T12:01:03.086Z,30816.00
2023-03-17T12:02:03.073Z,28576.00
2023-03-17T12:03:03.108Z,30272.00
2023-03-17T12:04:03.205Z,27680.00
2023-03-17T12:05:03.042Z,28544.00
2023-03-17T12:06:03.032Z,28832.00
2023-03-17T12:07:03.013Z,31264.00
2023-03-17T12:08:03.010Z,30848.00
2023-03-17T12:09:02.993Z,30272.00
2023-03-17T12:10:02.986Z,30048.00
2023-03-17T12:11:02.988Z,30208.00
2023-03-17T12:12:02.968Z,29632.00
2023-03-17T12:13:02.949Z,28992.00
2023-03-17T12:14:02.938Z,27232.00
2023-03-17T12:15:02.962Z,25344.00
2023-03-17T12:16:02.980Z,23936.00
2023-03-17T12:17:02.937Z,23008.00
2023-03-17T12:18:02.902Z,22400.00
2023-03-17T12:19:02.889Z,21696.00
2023-03-17T12:20:02.884Z,21376.00
2023-03-17T12:21:02.875Z,21600.00
2023-03-17T12:22:02.857Z,21248.00
2023-03-17T12:23:02.908Z,21152.00
2023-03-17T12:24:02.842Z,21344.00
2023-03-17T12:25:02.835Z,21632.00
2023-03-17T12:26:02.833Z,21984.00
2023-03-17T12:27:02.810Z,22400.00
2023-03-17T12:28:02.792Z,22816.00
2023-03-17T12:29:02.783Z,23296.00